Time;durP1;ratioP1;P1;durP2;ratioP2;P2;SDS_P1;SDS_P2;PMS_P1;PMS_P2;Temp;Humidity;BMP_temperature;BMP_pressure;BME280_temperature;BME280_humidity;BME280_pressure;Samples;Min_cycle;Max_cycle;Signal;HPM_P1;HPM_P2
2022/04/21 00:01:15;;;;;;;30.80;9.52;;;;;;;29.83;65.57;100861.13;5041235;28;66505;-35
2022/04/21 00:03:46;;;;;;;18.20;9.20;;;;;;;29.84;66.15;100863.63;5041079;28;70323;-34
2022/04/21 00:06:17;;;;;;;22.40;8.30;;;;;;;29.87;65.19;100867.78;5030137;28;65880;-34
2022/04/21 00:08:48;;;;;;;8.52;7.38;;;;;;;29.91;64.86;100865.47;5021846;28;70138;-34
2022/04/21 00:11:19;;;;;;;18.75;7.53;;;;;;;29.92;65.04;100867.13;5025143;28;65712;-35
2022/04/21 00:13:49;;;;;;;14.18;7.38;;;;;;;30.04;63.92;100893.31;5040209;28;69814;-34
2022/04/21 00:16:20;;;;;;;17.67;7.60;;;;;;;30.04;64.85;100906.00;5040633;28;66279;-36
2022/04/21 00:18:51;;;;;;;37.38;7.88;;;;;;;30.05;64.38;100904.94;5035520;28;69118;-35
2022/04/21 00:23:25;;;;;;;18.87;8.63;;;;;;;30.08;64.05;100915.34;5042799;28;66251;-34
2022/04/21 00:24:14;;;;;;;27.48;10.38;;;;;;;30.13;64.39;100923.66;5039579;28;69458;-35
2022/04/21 00:26:44;;;;;;;22.23;9.63;;;;;;;30.15;64.43;100921.56;5042518;28;66538;-34
2022/04/21 00:29:15;;;;;;;34.72;10.13;;;;;;;30.11;64.03;100909.50;5039919;28;70415;-36
2022/04/21 00:31:46;;;;;;;35.92;10.20;;;;;;;30.25;64.54;100921.94;5041307;28;66368;-36
2022/04/21 00:34:18;;;;;;;31.35;10.07;;;;;;;30.33;64.40;100922.75;5029367;28;69214;-35
2022/04/21 00:36:49;;;;;;;;;;;;;;;30.06;65.10;100929.09;5036154;28;66284;-33
2022/04/21 00:39:20;;;;;;;36.25;8.85;;;;;;;30.33;64.27;100917.34;5037155;28;69424;-35
2022/04/21 00:41:56;;;;;;;21.17;8.90;;;;;;;30.09;64.27;100868.31;5038588;28;65507;-35
2022/04/21 00:44:29;;;;;;;22.02;8.63;;;;;;;30.48;64.22;100931.44;5025636;28;69578;-34
2022/04/21 00:47:03;;;;;;;22.92;8.60;;;;;;;30.55;63.84;100926.81;5021268;28;66742;-34
2022/04/21 00:49:35;;;;;;;15.52;6.97;;;;;;;30.65;61.75;100931.75;5030795;28;70657;-33
2022/04/21 00:52:07;;;;;;;12.67;5.87;;;;;;;30.69;61.46;100922.97;5020536;28;65840;-33
2022/04/21 00:54:38;;;;;;;12.27;6.05;;;;;;;30.82;60.58;100937.53;5021083;28;70766;-33
2022/04/21 00:57:10;;;;;;;17.67;6.60;;;;;;;30.89;60.36;100946.41;5021775;28;65190;-33
2022/04/21 00:59:42;;;;;;;11.23;6.40;;;;;;;30.94;60.15;100935.75;5039812;28;69010;-34
2022/04/21 01:05:03;;;;;;;7.97;6.30;;;;;;;31.05;59.68;100926.09;5040245;28;70116;-33
2022/04/21 01:07:34;;;;;;;16.10;6.25;;;;;;;31.12;60.01;100930.41;5039488;28;67318;-32
2022/04/21 01:10:06;;;;;;;11.07;5.90;;;;;;;31.19;59.54;100932.22;5039119;28;71252;-32
2022/04/21 01:12:38;;;;;;;10.48;6.32;;;;;;;31.23;59.10;100936.16;5040746;28;66314;-33
2022/04/21 01:15:09;;;;;;;8.15;5.93;;;;;;;31.26;59.42;100933.00;5040475;28;69282;-33
2022/04/21 01:17:40;;;;;;;12.15;6.10;;;;;;;31.28;59.23;100925.47;5039879;28;65005;-33
2022/04/21 01:20:18;;;;;;;14.88;7.63;;;;;;;31.37;58.58;100924.16;5040656;28;69298;-33
2022/04/21 01:22:49;;;;;;;9.32;5.72;;;;;;;31.36;58.45;100928.75;5040294;28;65858;-32
2022/04/21 01:25:21;;;;;;;9.65;6.03;;;;;;;31.31;58.30;100919.59;5041079;28;69876;-34
2022/04/21 01:27:55;;;;;;;7.40;6.27;;;;;;;31.47;58.46;100946.19;5039185;28;66082;-33
2022/04/21 01:30:26;;;;;;;7.72;6.30;;;;;;;31.50;57.92;100940.31;5038841;28;70039;-33
2022/04/21 01:32:56;;;;;;;8.77;6.05;;;;;;;31.54;58.01;100938.81;5041211;28;65595;-34
2022/04/21 01:35:27;;;;;;;9.85;6.53;;;;;;;31.55;57.46;100943.19;5039591;28;69215;-35
2022/04/21 01:43:38;;;;;;;6.82;6.07;;;;;;;31.67;57.22;100942.44;5041150;28;65463;-33
2022/04/21 01:46:09;;;;;;;7.35;6.15;;;;;;;31.69;57.28;100935.75;5039069;28;70268;-33
2022/04/21 01:48:40;;;;;;;;;;;;;;;31.39;57.87;100935.63;5036479;28;66199;-33
2022/04/21 01:51:11;;;;;;;7.32;5.85;;;;;;;31.74;56.79;100945.94;5040973;28;70482;-33
2022/04/21 01:53:41;;;;;;;5.80;5.35;;;;;;;31.77;56.77;100937.34;5041006;28;66265;-33
2022/04/21 01:56:12;;;;;;;12.02;5.65;;;;;;;31.78;56.35;100933.56;5039208;28;70231;-33
2022/04/21 01:58:45;;;;;;;8.27;6.07;;;;;;;31.80;56.61;100936.91;5038693;28;65631;-33
2022/04/21 02:01:15;;;;;;;5.78;5.25;;;;;;;31.89;56.38;100938.25;5055809;28;70057;-33
2022/04/21 02:03:46;;;;;;;9.93;5.90;;;;;;;31.93;56.22;100939.50;5039329;28;66453;-34
2022/04/21 02:06:17;;;;;;;5.85;5.30;;;;;;;31.97;56.22;100926.28;5040981;28;70025;-34
2022/04/21 02:08:47;;;;;;;6.30;5.28;;;;;;;32.00;56.06;100929.38;5040720;28;66057;-33
2022/04/21 02:11:18;;;;;;;9.95;5.25;;;;;;;32.03;55.64;100928.09;5040520;28;69838;-32
2022/04/21 02:13:49;;;;;;;6.45;5.85;;;;;;;32.05;55.80;100926.81;5040688;28;66082;-33
2022/04/21 02:16:20;;;;;;;7.95;5.90;;;;;;;32.02;55.53;100916.41;5038171;28;69195;-33
2022/04/21 02:18:51;;;;;;;7.78;5.50;;;;;;;32.03;55.75;100918.06;5040435;28;66274;-34
2022/04/21 02:21:21;;;;;;;5.20;4.80;;;;;;;31.90;55.17;100888.38;5040141;28;70197;-33
2022/04/21 02:23:52;;;;;;;5.45;4.95;;;;;;;32.18;55.48;100930.41;5031695;28;66920;-33
2022/04/21 02:26:23;;;;;;;5.35;4.85;;;;;;;32.15;55.21;100917.31;5020636;28;70147;-33
2022/04/21 02:28:53;;;;;;;5.88;5.20;;;;;;;32.22;55.02;100932.44;5020743;28;66506;-34
2022/04/21 02:31:24;;;;;;;5.05;4.65;;;;;;;32.11;54.73;100916.94;5039077;28;70335;-32
2022/04/21 02:33:55;;;;;;;7.18;5.25;;;;;;;32.25;54.53;100925.75;5040275;28;66720;-33
2022/04/21 02:36:26;;;;;;;5.18;4.70;;;;;;;32.31;54.38;100934.84;5040077;28;70414;-34
2022/04/21 02:38:57;;;;;;;5.75;5.05;;;;;;;32.25;54.54;100926.56;5039316;28;66836;-33
2022/04/21 02:41:28;;;;;;;4.88;4.47;;;;;;;32.25;54.35;100920.31;5031531;28;71098;-33
2022/04/21 02:43:59;;;;;;;5.25;4.72;;;;;;;32.37;54.17;100940.19;5019741;28;65779;-33
2022/04/21 02:46:32;;;;;;;4.90;4.43;;;;;;;32.38;54.24;100941.84;5031196;28;68789;-33
2022/04/21 02:49:03;;;;;;;6.78;4.50;;;;;;;32.42;54.20;100937.63;5027262;28;66307;-33
2022/04/21 02:51:35;;;;;;;5.40;4.90;;;;;;;32.38;54.14;100933.72;5019474;28;69182;-32
2022/04/21 02:59:50;;;;;;;6.55;4.60;;;;;;;32.43;54.04;100933.84;5035206;28;65714;-33
2022/04/21 03:02:21;;;;;;;6.57;5.15;;;;;;;32.51;53.98;100945.47;5038602;28;69564;-33
2022/04/21 03:04:52;;;;;;;6.93;5.18;;;;;;;32.46;53.72;100936.16;5039891;28;66542;-32
2022/04/21 03:07:34;;;;;;;8.25;4.80;;;;;;;32.49;53.96;100943.00;5039322;28;70124;-33
2022/04/21 03:10:05;;;;;;;5.65;4.50;;;;;;;32.57;53.57;100942.69;5040515;28;66922;-33
2022/04/21 03:12:39;;;;;;;7.13;4.60;;;;;;;32.40;53.29;100907.16;5042704;28;70469;-33
2022/04/21 03:15:12;;;;;;;11.40;5.07;;;;;;;32.27;53.58;100881.03;5042561;28;66489;-32
2022/04/21 03:17:43;;;;;;;6.32;4.53;;;;;;;32.60;53.48;100930.53;5043529;28;70636;-32
2022/04/21 03:24:19;;;;;;;8.10;4.82;;;;;;;32.65;53.45;100936.06;5042212;28;66251;-33
2022/04/21 03:25:54;;;;;;;5.03;4.63;;;;;;;32.68;53.19;100935.59;5042579;28;65623;-33
2022/04/21 03:28:25;;;;;;;5.40;4.90;;;;;;;32.61;53.35;100924.03;5043226;28;69922;-33
2022/04/21 03:30:55;;;;;;;5.65;5.00;;;;;;;32.72;53.22;100936.81;5042178;28;65853;-33
2022/04/21 03:33:26;;;;;;;4.97;4.47;;;;;;;32.66;52.90;100922.28;5038898;28;69996;-32
2022/04/21 03:35:57;;;;;;;5.72;4.63;;;;;;;32.76;53.25;100929.84;5022579;28;66314;-33
2022/04/21 03:38:28;;;;;;;5.97;5.38;;;;;;;32.78;52.89;100925.03;5022938;28;70182;-33
2022/04/21 03:40:59;;;;;;;6.65;4.47;;;;;;;32.67;53.22;100895.94;5021955;28;65958;-33
2022/04/21 03:43:30;;;;;;;6.18;5.28;;;;;;;32.83;52.95;100921.63;5022466;28;70394;-33
2022/04/21 03:46:01;;;;;;;4.97;4.57;;;;;;;32.81;52.96;100919.13;5022234;28;67388;-32
2022/04/21 03:48:31;;;;;;;5.05;4.55;;;;;;;32.76;52.87;100894.53;5021345;28;70545;-33
2022/04/21 03:51:03;;;;;;;7.23;4.97;;;;;;;32.88;53.02;100914.41;5022979;28;65046;-32
2022/04/21 03:53:33;;;;;;;7.90;4.50;;;;;;;32.87;53.01;100907.31;5021750;28;70293;-32
2022/04/21 03:56:04;;;;;;;8.95;5.13;;;;;;;32.92;52.58;100910.16;5022256;28;65148;-33
2022/04/21 03:58:36;;;;;;;10.45;4.43;;;;;;;32.92;52.69;100912.88;5023151;28;69066;-32
2022/04/21 04:01:06;;;;;;;7.15;5.18;;;;;;;32.97;52.87;100914.09;5023599;28;66602;-33
2022/04/21 04:03:37;;;;;;;6.68;5.18;;;;;;;32.97;52.70;100908.66;5042442;28;70163;-32
2022/04/21 04:10:51;;;;;;;5.45;4.82;;;;;;;32.98;52.61;100899.41;5043356;28;66000;-32
2022/04/21 04:11:48;;;;;;;7.95;4.40;;;;;;;32.93;52.50;100881.94;5043352;28;65909;-33
2022/04/21 04:14:20;;;;;;;6.30;5.30;;;;;;;32.96;52.47;100882.53;5042516;28;70437;-33
2022/04/21 04:16:50;;;;;;;5.28;4.85;;;;;;;33.07;52.26;100889.88;5043381;28;66364;-33
2022/04/21 04:19:21;;;;;;;4.82;4.40;;;;;;;33.08;52.48;100886.13;5041622;28;69562;-33
2022/04/21 04:21:52;;;;;;;5.40;4.93;;;;;;;33.10;52.29;100884.81;5042737;28;65618;-33
2022/04/21 04:24:23;;;;;;;7.95;4.30;;;;;;;33.12;52.52;100871.00;5041923;28;70149;-33
2022/04/21 04:26:53;;;;;;;7.15;4.78;;;;;;;33.11;52.39;100869.34;5040557;28;66184;-33
2022/04/21 04:29:24;;;;;;;5.70;5.30;;;;;;;33.19;52.30;100877.16;5042397;28;70510;-33
2022/04/21 04:31:57;;;;;;;7.30;4.87;;;;;;;33.19;52.14;100865.44;5043161;28;66370;-33
2022/04/21 04:34:28;;;;;;;6.07;5.38;;;;;;;33.22;52.24;100854.09;5039516;28;70190;-33
2022/04/21 04:36:58;;;;;;;6.13;5.53;;;;;;;33.24;52.29;100852.81;5042869;28;66226;-33
2022/04/21 04:39:29;;;;;;;6.82;4.88;;;;;;;33.24;52.00;100833.78;5040489;28;70008;-33
2022/04/21 04:42:34;;;;;;;5.18;4.78;;;;;;;33.27;52.12;100844.16;5040689;28;66162;-33
2022/04/21 04:47:47;;;;;;;5.32;4.82;;;;;;;33.31;52.01;100834.47;5042302;28;65661;-34
2022/04/21 04:50:18;;;;;;;7.50;5.10;;;;;;;33.32;51.92;100833.41;5040375;28;68879;-33
2022/04/21 04:52:49;;;;;;;7.50;4.88;;;;;;;33.34;52.10;100825.81;5041731;28;66606;-34
2022/04/21 04:55:20;;;;;;;7.75;5.05;;;;;;;33.37;51.88;100824.53;5041110;28;70229;-32
2022/04/21 04:57:52;;;;;;;5.18;4.70;;;;;;;33.35;52.16;100816.63;5051257;28;66641;-33
2022/04/21 05:00:24;;;;;;;6.32;5.15;;;;;;;33.31;52.11;100803.72;5021771;28;70022;-33
2022/04/21 05:02:56;;;;;;;7.32;5.10;;;;;;;33.43;51.68;100811.88;5038081;28;66348;-33
2022/04/21 05:05:26;;;;;;;6.15;5.03;;;;;;;33.43;51.71;100806.44;5040632;28;69738;-34
2022/04/21 05:07:58;;;;;;;5.43;4.97;;;;;;;33.38;51.76;100786.22;5042418;28;65679;-33
2022/04/21 05:10:29;;;;;;;10.13;5.03;;;;;;;33.44;51.85;100797.22;5040414;28;69729;-33
2022/04/21 05:13:00;;;;;;;6.47;4.95;;;;;;;33.48;51.67;100790.22;5040780;28;65494;-33
2022/04/21 05:15:30;;;;;;;6.00;5.47;;;;;;;33.50;51.70;100785.38;5040292;28;70475;-32
2022/04/21 05:18:01;;;;;;;5.78;5.10;;;;;;;33.51;51.53;100787.03;5042106;28;66431;-32
2022/04/21 05:20:32;;;;;;;6.10;5.37;;;;;;;33.51;51.55;100776.13;5040635;28;71404;-33
2022/04/21 05:23:06;;;;;;;6.32;5.18;;;;;;;33.09;51.48;100697.53;5041456;28;66443;-33
2022/04/21 05:25:38;;;;;;;6.20;4.95;;;;;;;33.56;51.50;100768.94;5040956;28;70010;-32
2022/04/21 05:28:09;;;;;;;5.18;4.75;;;;;;;33.56;51.58;100757.25;5040327;28;66388;-34
2022/04/21 05:30:55;;;;;;;5.95;5.18;;;;;;;33.40;51.43;100719.91;5041991;28;69141;-34
2022/04/21 05:33:30;;;;;;;5.30;4.90;;;;;;;33.50;51.59;100731.81;5040730;28;66336;-34
2022/04/21 05:36:01;;;;;;;5.03;4.63;;;;;;;33.59;51.42;100743.16;5040139;28;70009;-33
2022/04/21 05:38:32;;;;;;;6.05;5.03;;;;;;;33.65;51.41;100746.81;5040157;28;65468;-34
2022/04/21 05:41:04;;;;;;;5.80;5.35;;;;;;;33.66;51.38;100737.59;5041167;28;69263;-34
2022/04/21 05:43:39;;;;;;;;;;;;;;;33.38;51.73;100741.91;5040238;28;66063;-33
2022/04/21 05:46:12;;;;;;;5.32;4.90;;;;;;;33.69;51.39;100740.66;5040061;28;70360;-34
2022/04/21 05:48:44;;;;;;;5.72;5.30;;;;;;;33.70;51.24;100725.97;5040315;28;66430;-34
2022/04/21 05:51:15;;;;;;;5.88;5.22;;;;;;;33.54;51.25;100697.66;5039816;28;69979;-33
2022/04/21 05:53:49;;;;;;;5.57;5.07;;;;;;;33.77;51.15;100737.53;5040204;28;66930;-33
2022/04/21 05:56:20;;;;;;;12.05;5.30;;;;;;;33.78;50.90;100716.59;5037739;28;69993;-35
2022/04/21 05:58:52;;;;;;;5.47;5.03;;;;;;;33.79;51.09;100708.19;5039811;28;66408;-32
2022/04/21 06:01:23;;;;;;;5.28;4.88;;;;;;;33.83;51.08;100702.25;5038401;28;69122;-33
2022/04/21 06:03:55;;;;;;;5.60;5.07;;;;;;;33.86;51.05;100705.31;5039883;28;66584;-33
2022/04/21 06:06:26;;;;;;;4.93;4.45;;;;;;;33.87;51.28;100692.53;5038141;28;69956;-33
2022/04/21 06:08:57;;;;;;;5.07;4.68;;;;;;;33.80;50.52;100674.47;5041125;28;66089;-33
2022/04/21 06:11:27;;;;;;;9.18;5.00;;;;;;;33.96;50.95;100681.00;5040786;28;69124;-33
2022/04/21 06:13:58;;;;;;;6.40;5.38;;;;;;;33.97;50.41;100668.22;5038778;28;65154;-33
2022/04/21 06:16:29;;;;;;;5.32;4.78;;;;;;;34.00;50.88;100676.72;5040241;28;69496;-33
2022/04/21 06:19:00;;;;;;;5.40;5.00;;;;;;;34.02;50.61;100658.25;5040967;28;66519;-34
2022/04/21 06:21:31;;;;;;;5.40;4.90;;;;;;;34.08;50.78;100661.91;5039559;28;70333;-33
2022/04/21 06:24:02;;;;;;;5.05;4.65;;;;;;;34.10;50.94;100648.88;5039218;28;66537;-33
2022/04/21 06:26:33;;;;;;;7.28;5.18;;;;;;;34.14;50.48;100641.84;5040616;28;70529;-33
2022/04/21 06:29:03;;;;;;;5.63;4.40;;;;;;;34.20;50.93;100646.28;5037355;28;66018;-33
2022/04/21 06:31:36;;;;;;;6.25;4.55;;;;;;;34.13;50.41;100626.59;5040529;28;70254;-34
2022/04/21 06:34:14;;;;;;;5.30;4.82;;;;;;;34.01;50.46;100587.72;5039294;28;65407;-33
2022/04/21 06:36:45;;;;;;;5.50;5.10;;;;;;;34.23;50.52;100609.59;5040723;28;69548;-34
2022/04/21 06:39:15;;;;;;;4.93;4.47;;;;;;;34.33;50.52;100622.53;5038990;28;65832;-34
2022/04/21 06:41:46;;;;;;;5.15;4.35;;;;;;;34.34;50.09;100607.84;5038011;28;70332;-33
2022/04/21 06:50:01;;;;;;;5.57;4.70;;;;;;;34.32;50.16;100596.38;5035466;28;65886;-34
2022/04/21 06:52:33;;;;;;;6.07;4.93;;;;;;;34.34;50.34;100589.59;5034058;28;69619;-33
2022/04/21 06:55:04;;;;;;;6.20;4.82;;;;;;;34.31;50.07;100581.13;5037886;28;65415;-34
2022/04/21 06:57:35;;;;;;;5.47;4.82;;;;;;;34.43;50.32;100593.53;5022699;28;70110;-33
2022/04/21 07:00:07;;;;;;;5.35;4.38;;;;;;;34.42;50.43;100580.19;5022247;28;65636;-33
2022/04/21 07:02:38;;;;;;;6.68;4.35;;;;;;;34.40;50.44;100582.31;5037136;28;70301;-33
2022/04/21 07:05:11;;;;;;;4.88;4.47;;;;;;;34.46;50.28;100587.59;5043361;28;66561;-32
2022/04/21 07:07:42;;;;;;;6.05;4.90;;;;;;;34.49;50.22;100575.34;5042353;28;69432;-33
2022/04/21 07:10:17;;;;;;;5.22;4.60;;;;;;;34.54;49.98;100572.69;5044211;28;66445;-33
2022/04/21 07:12:48;;;;;;;8.07;4.28;;;;;;;34.56;50.15;100565.13;5042878;28;70942;-33
2022/04/21 07:15:19;;;;;;;5.55;4.25;;;;;;;34.55;50.01;100552.56;5043759;28;66305;-34
2022/04/21 07:17:50;;;;;;;5.85;4.20;;;;;;;34.63;50.02;100560.34;5043789;28;70425;-35
2022/04/21 07:20:21;;;;;;;6.43;4.77;;;;;;;34.62;49.97;100561.41;5042398;28;67169;-33
2022/04/21 07:22:52;;;;;;;5.18;4.57;;;;;;;34.68;49.91;100557.66;5043668;28;69864;-34
2022/04/21 07:25:28;;;;;;;5.20;4.18;;;;;;;34.73;49.68;100553.34;5043491;28;66340;-33
2022/04/21 07:27:59;;;;;;;5.65;4.00;;;;;;;34.70;50.02;100539.16;5043332;28;69682;-34
2022/04/21 07:30:30;;;;;;;5.18;4.00;;;;;;;34.74;50.01;100546.81;5036380;28;65533;-35
2022/04/21 07:33:01;;;;;;;4.68;4.22;;;;;;;34.75;49.67;100551.22;5022488;28;69710;-34
2022/04/21 07:35:32;;;;;;;4.72;4.32;;;;;;;34.80;49.88;100553.97;5023113;28;66304;-33
2022/04/21 07:38:05;;;;;;;7.43;4.35;;;;;;;34.83;49.70;100553.47;5023151;28;70390;-34
2022/04/21 07:40:38;;;;;;;4.60;4.20;;;;;;;34.56;49.41;100507.13;5020786;28;65548;-33
2022/04/21 07:43:09;;;;;;;4.13;3.72;;;;;;;34.83;49.62;100543.41;5030689;28;69255;-34
2022/04/21 07:45:44;;;;;;;;;;;;;;;34.61;50.07;100548.88;5031394;28;65732;-34
2022/04/21 07:48:15;;;;;;;5.72;4.10;;;;;;;34.88;49.58;100534.44;5029993;28;70704;-33
2022/04/21 07:50:46;;;;;;;4.38;4.07;;;;;;;34.95;49.52;100539.72;5021030;28;65393;-34
2022/04/21 07:53:24;;;;;;;5.07;4.57;;;;;;;34.98;49.10;100536.47;5020459;28;70269;-33
2022/04/21 07:55:54;;;;;;;;;;;;;;;34.72;49.74;100536.19;5021772;28;66336;-34
2022/04/21 07:58:27;;;;;;;6.00;4.20;;;;;;;35.02;49.36;100537.59;5022586;28;69851;-35
2022/04/21 08:00:58;;;;;;;5.60;4.03;;;;;;;34.82;49.27;100497.31;5021263;28;65727;-35
2022/04/21 08:03:35;;;;;;;5.75;4.38;;;;;;;34.99;49.14;100519.03;5021481;28;70221;-34
2022/04/21 08:06:05;;;;;;;5.10;4.20;;;;;;;35.14;48.92;100530.94;5021521;28;65708;-33
2022/04/21 08:08:36;;;;;;;9.27;4.40;;;;;;;35.17;49.20;100521.44;5021787;28;70083;-32
2022/04/21 08:11:08;;;;;;;4.18;3.80;;;;;;;35.10;49.10;100510.75;5029241;28;66465;-33
2022/04/21 08:13:39;;;;;;;4.53;4.13;;;;;;;35.22;48.93;100520.66;5041033;28;70270;-33
2022/04/21 08:16:10;;;;;;;6.30;3.80;;;;;;;35.25;48.82;100534.59;5042125;28;65167;-33
2022/04/21 08:18:41;;;;;;;5.15;4.25;;;;;;;35.26;48.95;100541.69;5042787;28;69206;-33
2022/04/21 08:21:12;;;;;;;4.57;3.90;;;;;;;35.31;48.58;100527.28;5041204;28;66300;-33
2022/04/21 08:23:46;;;;;;;5.20;4.40;;;;;;;35.32;48.93;100526.19;5040874;28;70166;-34
2022/04/21 08:34:50;;;;;;;5.57;3.90;;;;;;;35.14;48.48;100479.16;5042052;28;69952;-34
2022/04/21 08:37:26;;;;;;;4.90;3.97;;;;;;;35.43;48.78;100517.00;5039648;28;66798;-34
2022/04/21 08:39:57;;;;;;;6.15;3.50;;;;;;;35.46;48.85;100518.41;5042604;28;71475;-34
2022/04/21 08:42:31;;;;;;;5.47;3.70;;;;;;;35.51;48.77;100521.16;5041021;28;65740;-34
2022/04/21 08:45:05;;;;;;;4.55;3.40;;;;;;;35.43;48.68;100497.91;5039661;28;70342;-34
2022/04/21 08:47:39;;;;;;;;;;;;;;;35.28;49.20;100519.63;5041634;28;65971;-34
2022/04/21 08:50:12;;;;;;;4.68;3.70;;;;;;;35.55;48.51;100512.22;5037405;28;70545;-33
2022/04/21 08:52:43;;;;;;;8.63;3.92;;;;;;;35.57;48.37;100506.50;5036827;28;66239;-34
2022/04/21 08:55:14;;;;;;;6.72;3.70;;;;;;;35.52;48.32;100501.81;5037894;28;69796;-34
2022/04/21 08:57:45;;;;;;;3.92;3.55;;;;;;;35.61;48.21;100515.00;5039156;28;65510;-33
2022/04/21 09:00:16;;;;;;;3.85;3.53;;;;;;;35.58;48.45;100506.25;5022033;28;70390;-33
2022/04/21 09:02:48;;;;;;;6.60;3.73;;;;;;;35.63;48.21;100512.81;5035727;28;66405;-33
2022/04/21 09:05:22;;;;;;;6.72;4.10;;;;;;;35.28;48.07;100454.19;5041072;28;70327;-33
2022/04/21 09:07:53;;;;;;;4.18;3.55;;;;;;;35.63;48.27;100502.72;5039770;28;65681;-33
2022/04/21 09:10:44;;;;;;;5.50;3.53;;;;;;;35.65;48.71;100500.56;5040901;28;70276;-33
2022/04/21 09:13:15;;;;;;;5.70;3.80;;;;;;;35.67;48.55;100505.78;5023787;28;65904;-33
2022/04/21 09:15:45;;;;;;;4.63;3.80;;;;;;;35.68;48.58;100493.78;5039753;28;70284;-33
2022/04/21 09:18:17;;;;;;;6.53;3.50;;;;;;;35.69;48.52;100500.84;5041823;28;66522;-34
2022/04/21 09:20:53;;;;;;;7.38;3.60;;;;;;;35.68;48.22;100505.50;5041245;28;69979;-34
2022/04/21 09:23:33;;;;;;;4.10;3.78;;;;;;;35.69;48.26;100528.16;5039967;28;65838;-35
2022/04/21 09:26:12;;;;;;;3.45;3.15;;;;;;;35.66;48.29;100507.69;5041334;28;69593;-34
2022/04/21 09:28:56;;;;;;;5.60;4.38;;;;;;;35.34;48.36;100455.84;5038796;28;66675;-34
2022/04/21 09:31:28;;;;;;;8.05;4.10;;;;;;;35.69;48.32;100506.31;5039571;28;69080;-33
2022/04/21 09:34:00;;;;;;;4.60;3.63;;;;;;;35.48;48.55;100478.06;5039984;28;66719;-33
2022/04/21 09:36:32;;;;;;;6.40;3.67;;;;;;;35.60;47.87;100496.97;5041442;28;70079;-33
2022/04/21 09:39:02;;;;;;;;;;;;;;;35.43;48.41;100511.56;5041435;28;66185;-34
2022/04/21 09:41:33;;;;;;;6.65;3.63;;;;;;;35.69;48.40;100509.91;5039551;28;70150;-33
2022/04/21 09:47:08;;;;;;;6.65;4.07;;;;;;;35.66;47.78;100524.06;5039235;28;70566;-33
2022/04/21 09:49:43;;;;;;;6.15;3.63;;;;;;;35.71;48.49;100531.44;5039216;28;66419;-33
2022/04/21 09:52:27;;;;;;;7.43;3.95;;;;;;;35.66;48.44;100545.03;5038564;28;69488;-33
2022/04/21 09:54:58;;;;;;;4.53;3.42;;;;;;;35.69;48.07;100539.91;5039260;28;65578;-33
2022/04/21 09:57:30;;;;;;;5.47;3.63;;;;;;;35.68;48.71;100551.88;5039671;28;70708;-33
2022/04/21 10:00:03;;;;;;;3.92;3.55;;;;;;;35.35;48.09;100485.59;5039130;28;66359;-34
2022/04/21 10:02:35;;;;;;;9.82;4.65;;;;;;;35.67;48.55;100546.72;5040397;28;70347;-33
2022/04/21 10:05:06;;;;;;;10.23;4.80;;;;;;;35.66;48.69;100547.78;5038802;28;66638;-33
2022/04/21 10:07:38;;;;;;;6.25;3.85;;;;;;;35.53;48.67;100519.84;5038294;28;69989;-34
2022/04/21 10:10:11;;;;;;;7.10;3.47;;;;;;;35.57;48.14;100540.06;5024650;28;43130;-32
2022/04/21 10:12:42;;;;;;;8.48;4.18;;;;;;;35.57;48.49;100540.06;5040322;28;69832;-34
2022/04/21 10:15:13;;;;;;;5.38;3.80;;;;;;;35.52;48.45;100534.56;5040105;28;66396;-34
2022/04/21 10:17:44;;;;;;;15.80;5.67;;;;;;;35.29;50.08;100534.88;5036057;28;69262;-33
2022/04/21 10:20:15;;;;;;;11.20;5.87;;;;;;;34.96;51.06;100533.97;5031163;28;66863;-33
2022/04/21 10:22:47;;;;;;;16.53;5.53;;;;;;;34.89;51.44;100552.47;5032205;28;69167;-33
2022/04/21 10:25:19;;;;;;;16.50;6.07;;;;;;;34.78;52.07;100550.69;5016841;28;65543;-34
2022/04/21 10:27:50;;;;;;;;;;;;;;;34.35;53.56;100563.19;4995304;28;69269;-35
2022/04/21 10:30:22;;;;;;;12.48;6.75;;;;;;;34.48;53.37;100554.66;5030141;28;64556;-34
2022/04/21 10:33:01;;;;;;;11.27;7.90;;;;;;;34.54;53.46;100578.16;5032254;28;69989;-38
2022/04/21 10:35:36;;;;;;;16.75;9.43;;;;;;;34.46;53.81;100578.59;5022089;28;66098;-39
2022/04/21 10:38:13;;;;;;;14.43;9.00;;;;;;;34.39;54.19;100576.06;5035002;28;70151;-34
2022/04/21 10:41:07;;;;;;;16.42;10.75;;;;;;;34.25;54.39;100591.94;5006853;28;65949;-35
2022/04/21 10:43:52;;;;;;;14.90;10.40;;;;;;;34.31;54.30;100589.28;5038974;28;69480;-35
2022/04/21 10:46:26;;;;;;;12.73;10.00;;;;;;;34.13;54.19;100566.72;5036471;28;66277;-34
2022/04/21 10:48:59;;;;;;;14.63;9.93;;;;;;;33.60;55.38;100478.28;5035383;28;70641;-34
2022/04/21 10:57:33;;;;;;;10.35;8.98;;;;;;;34.10;55.04;100589.00;5037132;28;66085;-36
2022/04/21 11:00:10;;;;;;;21.02;9.38;;;;;;;34.09;55.54;100598.22;5033454;28;69789;-33
2022/04/21 11:02:43;;;;;;;18.40;9.35;;;;;;;34.10;55.46;100620.81;5038160;28;66447;-33
2022/04/21 11:05:27;;;;;;;20.17;9.60;;;;;;;34.06;55.82;100620.50;5039694;28;69524;-35
2022/04/21 11:08:04;;;;;;;14.70;9.57;;;;;;;33.95;55.62;100607.75;5039759;28;66638;-34
2022/04/21 11:10:37;;;;;;;23.88;9.02;;;;;;;34.07;56.08;100626.75;5039171;28;70395;-33
2022/04/21 11:13:10;;;;;;;11.50;8.73;;;;;;;33.94;56.13;100619.75;5039081;28;65754;-35
2022/04/21 11:15:53;;;;;;;17.58;9.40;;;;;;;34.04;56.37;100638.94;5038250;28;69983;-36
2022/04/21 11:18:33;;;;;;;14.65;10.02;;;;;;;34.01;56.24;100644.88;5039300;28;66391;-34
2022/04/21 11:21:29;;;;;;;12.13;8.68;;;;;;;33.88;56.77;100647.91;5033901;28;69261;-33
2022/04/21 11:24:01;;;;;;;15.13;9.27;;;;;;;33.98;56.60;100669.84;5039623;28;66391;-37
2022/04/21 11:26:32;;;;;;;12.65;9.18;;;;;;;33.98;56.43;100667.97;5021098;28;69344;-34
2022/04/21 11:29:04;;;;;;;15.45;9.40;;;;;;;33.94;56.32;100674.16;5039779;28;65618;-34
2022/04/21 11:31:34;;;;;;;16.15;9.25;;;;;;;33.91;56.21;100671.94;5040112;28;70162;-34
2022/04/21 11:34:05;;;;;;;16.15;8.48;;;;;;;33.94;56.74;100674.16;5038694;28;65679;-35
2022/04/21 11:36:41;;;;;;;17.35;8.98;;;;;;;33.88;57.11;100675.13;5027660;28;70019;-33
2022/04/21 11:39:14;;;;;;;12.57;8.60;;;;;;;33.57;57.02;100618.31;5032188;28;65713;-33
2022/04/21 11:41:48;;;;;;;15.80;8.77;;;;;;;33.95;57.50;100692.13;5031667;28;70068;-33
2022/04/21 11:44:24;;;;;;;17.88;9.10;;;;;;;33.81;57.20;100692.44;5039365;28;64899;-37
2022/04/21 11:46:55;;;;;;;24.30;10.02;;;;;;;33.74;56.63;100694.50;5030412;28;68796;-35
2022/04/21 11:49:27;;;;;;;36.43;11.87;;;;;;;33.66;56.56;100708.50;5031672;28;66173;-34
2022/04/21 11:52:00;;;;;;;15.68;9.48;;;;;;;33.62;56.51;100701.88;5024159;28;69618;-34
2022/04/21 11:54:31;;;;;;;17.80;9.27;;;;;;;33.34;56.40;100662.69;5022606;28;65676;-36
2022/04/21 11:57:04;;;;;;;26.02;9.18;;;;;;;33.53;56.34;100703.34;5024917;28;69643;-36
2022/04/21 11:59:43;;;;;;;16.95;8.63;;;;;;;33.50;56.41;100714.66;5021998;28;66440;-36
2022/04/21 12:08:13;;;;;;;16.88;9.60;;;;;;;33.42;56.38;100751.22;4997353;28;70159;-35
2022/04/21 12:10:50;;;;;;;29.42;10.00;;;;;;;33.37;56.80;100749.22;5020099;28;65239;-36
2022/04/21 12:13:27;;;;;;;20.35;9.90;;;;;;;33.38;56.66;100756.31;5022943;28;69643;-36
2022/04/21 12:16:25;;;;;;;19.45;10.50;;;;;;;33.31;56.82;100754.81;5020871;28;65982;-35
2022/04/21 12:18:57;;;;;;;15.07;9.75;;;;;;;33.23;56.28;100764.16;5020373;28;69395;-35
2022/04/21 12:21:37;;;;;;;21.75;10.20;;;;;;;33.26;56.56;100773.72;5026849;28;65604;-35
2022/04/21 12:24:20;;;;;;;12.27;9.77;;;;;;;33.12;56.68;100759.56;5037582;28;68698;-40
2022/04/21 12:26:54;;;;;;;12.93;9.23;;;;;;;33.20;56.76;100789.09;5042198;28;65706;-35
2022/04/21 12:29:47;;;;;;;13.02;9.15;;;;;;;33.17;56.92;100796.91;5040334;28;69510;-36
2022/04/21 12:32:30;;;;;;;20.67;10.30;;;;;;;33.18;56.96;100793.09;5042625;28;65691;-36
2022/04/21 12:35:11;;;;;;;17.00;10.15;;;;;;;33.15;57.04;100791.69;5040766;28;70209;-35
2022/04/21 12:40:53;;;;;;;20.15;13.07;;;;;;;33.06;57.56;100791.22;5042039;28;70552;-35
2022/04/21 12:43:32;;;;;;;15.38;11.75;;;;;;;33.06;57.74;100807.53;5028899;28;65368;-35
2022/04/21 12:46:07;;;;;;;14.80;11.35;;;;;;;33.07;57.85;100806.50;5035001;28;69861;-36